Flight Track Log - Related Links

Times and Time Zones

All times are in EDT time to prevent confusion due to time zone crossing. See the AWE1092 flight status page for this flight to view local times or setup timezone preferences in your user account.

Time Position Orientation Groundspeed Altitude Reporting Facility
EDT Latitude Longitude Course Direction KTS MPH feet Rate Location/Type
Fri 09:51:09 AM 39.8000 -75.3333 210° Southwest 232 267 3,400  Level Philadelphia TRACON
Fri 09:52:00 AM 39.5998 -75.3000 180° South  Level FlightAware Approximate
Fri 09:53:00 AM 39.5070 -75.3153 189° South  Level FlightAware Approximate
Fri 09:53:14 AM 39.6819 -75.3461 185° South 252 290 8,400  Level Washington Center
Fri 09:54:00 AM 39.4150 -75.3354 185° South  Level FlightAware Approximate
Fri 09:54:14 AM 39.6050 -75.3383 176° South 264 304 9,200  Level Washington Center
Fri 09:55:00 AM 39.3216 -75.3457 185° South  Level FlightAware Approximate
Fri 09:55:15 AM 39.5258 -75.3306 176° South 276 318 10,900  Level Washington Center
Fri 09:56:16 AM 39.4467 -75.3389 185° South 288 331 13,700 2,017 Climbing Washington Center
Fri 09:57:14 AM 39.3611 -75.3528 187° South 293 337 14,900 1,109 Climbing Washington Center
Fri 09:58:15 AM 39.2694 -75.3717 189° South 316 364 15,900 893 Climbing Washington Center
Fri 09:59:15 AM 39.1736 -75.3908 189° South 335 386 16,700 793 Climbing Washington Center
Fri 10:00:16 AM 39.0800 -75.4017 185° South 340 391 17,500 1,261 Climbing Washington Center
Fri 10:01:14 AM 38.9861 -75.4181 188° South 345 397 19,200 2,034 Climbing Washington Center
Fri 10:02:14 AM 38.8903 -75.4289 185° South 350 403 21,500 1,950 Climbing Washington Center
Fri 10:03:14 AM 38.8006 -75.4450 188° South 342 394 23,100 1,339 Climbing Washington Center
Fri 10:04:15 AM 38.7131 -75.4561 186° South 332 382 24,200 1,082 Climbing Washington Center
Fri 10:05:16 AM 38.6233 -75.4694 187° South 332 382 25,300 655 Climbing Washington Center
Fri 10:06:14 AM 38.5256 -75.4828 186° South 339 390 25,500 303 Climbing Washington Center
Fri 10:07:15 AM 38.4233 -75.4989 187° South 363 418 25,900 248 Climbing Washington Center
Fri 10:08:15 AM 38.3233 -75.5361 196° South 371 427 26,000 50 Climbing Washington Center
Fri 10:09:16 AM 38.2211 -75.6233 214° Southwest 376 433 26,000  Level Washington Center
Fri 10:10:16 AM 38.1314 -75.7025 215° Southwest 396 456 26,000  Level Washington Center
Fri 10:11:14 AM 38.0458 -75.7842 217° Southwest 402 463 26,000  Level Washington Center
Fri 10:12:15 AM 37.9558 -75.8656 215° Southwest 402 463 26,000  Level Washington Center
Fri 10:13:16 AM 37.8661 -75.9522 217° Southwest 402 463 26,000  Level Washington Center
Fri 10:14:14 AM 37.7739 -76.0331 215° Southwest 402 463 26,000  Level Washington Center
Fri 10:15:15 AM 37.6861 -76.1192 218° Southwest 402 463 26,000  Level Washington Center
Fri 10:16:15 AM 37.5919 -76.1972 213° Southwest 407 468 26,000  Level Washington Center
Fri 10:17:16 AM 37.5017 -76.2803 216° Southwest 407 468 26,000 -50 Level Washington Center
Fri 10:18:14 AM 37.4117 -76.3631 216° Southwest 407 468 25,900 -655 Descending Washington Center
Fri 10:19:15 AM 37.3214 -76.4406 214° Southwest 407 468 24,700 -885 Descending Washington Center
Fri 10:20:16 AM 37.2372 -76.5283 220° Southwest 402 463 24,100 -347 Descending Washington Center
Fri 10:21:16 AM 37.1717 -76.6344 232° Southwest 392 451 24,000 -769 Descending Washington Center
Fri 10:22:13 AM 37.1061 -76.7353 231° Southwest 387 445 22,600 -1,525 Descending Washington Center
Fri 10:23:14 AM 37.0425 -76.8331 231° Southwest 373 429 21,000 -1,180 Descending Washington Center
Fri 10:24:15 AM 36.9811 -76.9336 233° Southwest 373 429 20,200 -504 Descending Washington Center
Fri 10:25:13 AM 36.9172 -77.0286 230° Southwest 373 429 20,000 -101 Descending Washington Center
Fri 10:26:14 AM 36.8578 -77.1233 232° Southwest 368 423 20,000 -1,140 Level Washington Center
Fri 10:27:14 AM 36.7961 -77.2131 229° Southwest 358 412 17,700 -1,835 Descending Washington Center
Fri 10:28:15 AM 36.7383 -77.3025 231° Southwest 347 399 16,300 -934 Descending Washington Center
Fri 10:29:16 AM 36.6808 -77.3944 232° Southwest 341 392 15,800 -545 Descending Washington Center
Fri 10:30:16 AM 36.6253 -77.4786 231° Southwest 341 392 15,200 -600 Descending Washington Center
Fri 10:31:16 AM 36.5717 -77.5600 231° Southwest 336 387 14,600 -610 Descending Washington Center
Fri 10:32:14 AM 36.5225 -77.6364 231° Southwest 311 358 14,000 -559 Descending Washington Center
Fri 10:33:14 AM 36.4753 -77.7100 231° Southwest 290 334 13,500 -545 Descending Washington Center
Fri 10:34:15 AM 36.4239 -77.7808 228° Southwest 284 327 12,900 -590 Descending Washington Center
Fri 10:35:16 AM 36.3725 -77.8619 232° Southwest 284 327 12,300 -623 Descending Washington Center
Fri 10:36:01 AM 36.3314 -77.9306 233° Southwest 308 354 11,800 -553 Descending Washington Center
Fri 10:36:32 AM 36.3078 -77.9658 230° Southwest 297 342 11,600 -493 Descending Washington Center
Fri 10:37:14 AM 36.2714 -78.0189 230° Southwest 295 339 11,200 -600 Descending Washington Center
Fri 10:37:32 AM 36.2519 -78.0442 226° Southwest 276 318 11,000 -590 Descending Washington Center
Fri 10:38:15 AM 36.2239 -78.0919 234° Southwest 295 339 10,600 -583 Descending Washington Center
Fri 10:39:15 AM 36.1742 -78.1678 231° Southwest 295 339 10,000 -1,000 Descending Washington Center
Fri 10:40:15 AM 36.1331 -78.2436 236° Southwest 280 322 8,600 -1,421 Descending Washington Center
Fri 10:40:31 AM 36.1242 -78.2664 244° Southwest 265 305 8,200 -1,322 Descending Washington Center
Fri 10:41:14 AM 36.1061 -78.3275 250° West 275 316 7,300 -1,138 Descending Washington Center
Fri 10:41:29 AM 36.0992 -78.3503 249° West 267 307 7,100 -885 Descending Washington Center
Fri 10:42:15 AM 36.0833 -78.4089 252° West 276 318 6,400 -984 Descending Washington Center
Fri 10:42:30 AM 36.0742 -78.4369 248° West 271 312 6,100 -1,377 Descending Washington Center
Fri 10:43:16 AM 36.0603 -78.4956 254° West 276 318 5,000 -1,574 Descending Washington Center
Fri 10:43:31 AM 36.0492 -78.5258 246° West 269 310 4,500 -1,300 Descending Washington Center
Fri 10:44:16 AM 36.0394 -78.5794 257° West 271 312 3,700 -1,100 Descending Washington Center
Fri 10:44:31 AM 36.0222 -78.6044 230° Southwest 255 293 3,400 -700 Descending Washington Center
Fri 10:45:16 AM 35.9981 -78.6497 237° Southwest 259 298 3,000 -533 Descending Washington Center

Login

Don't have an account? Register now (free) for customized features, flight alerts, and more!